sensor_id;sensor_type;location;lat;lon;timestamp;pressure;altitude;pressure_sealevel;temperature;humidity
70546;BME280;58098;51.680;5.134;2023-05-02T00:00:14;102059.06;;;10.57;100.00
70546;BME280;58098;51.680;5.134;2023-05-02T00:02:40;102079.03;;;10.58;100.00
70546;BME280;58098;51.680;5.134;2023-05-02T00:05:05;102093.38;;;10.51;100.00
70546;BME280;58098;51.680;5.134;2023-05-02T00:07:31;102075.63;;;10.42;100.00
70546;BME280;58098;51.680;5.134;2023-05-02T00:09:57;102068.16;;;10.36;100.00
70546;BME280;58098;51.680;5.134;2023-05-02T00:12:23;102089.53;;;10.42;100.00
70546;BME280;58098;51.680;5.134;2023-05-02T00:14:48;102100.09;;;10.55;100.00
70546;BME280;58098;51.680;5.134;2023-05-02T00:17:17;102097.75;;;10.50;100.00
70546;BME280;58098;51.680;5.134;2023-05-02T00:19:43;102075.91;;;10.37;100.00
70546;BME280;58098;51.680;5.134;2023-05-02T00:22:08;102089.78;;;10.38;100.00
70546;BME280;58098;51.680;5.134;2023-05-02T00:24:33;102092.00;;;10.30;100.00
70546;BME280;58098;51.680;5.134;2023-05-02T00:26:59;102084.38;;;10.27;100.00
70546;BME280;58098;51.680;5.134;2023-05-02T00:29:24;102099.66;;;10.33;100.00
70546;BME280;58098;51.680;5.134;2023-05-02T00:31:50;102091.25;;;10.28;100.00
70546;BME280;58098;51.680;5.134;2023-05-02T00:34:15;102092.94;;;10.29;100.00
70546;BME280;58098;51.680;5.134;2023-05-02T00:36:40;102075.03;;;10.23;100.00
70546;BME280;58098;51.680;5.134;2023-05-02T00:39:06;102087.78;;;10.27;100.00
70546;BME280;58098;51.680;5.134;2023-05-02T00:41:31;102093.28;;;10.23;100.00
70546;BME280;58098;51.680;5.134;2023-05-02T00:43:57;102087.59;;;10.16;100.00
70546;BME280;58098;51.680;5.134;2023-05-02T00:46:22;102085.25;;;10.12;100.00
70546;BME280;58098;51.680;5.134;2023-05-02T00:48:47;102083.69;;;10.08;100.00
70546;BME280;58098;51.680;5.134;2023-05-02T00:51:13;102092.91;;;10.15;100.00
70546;BME280;58098;51.680;5.134;2023-05-02T00:53:39;102080.03;;;10.12;100.00
70546;BME280;58098;51.680;5.134;2023-05-02T00:56:06;102075.56;;;10.14;100.00
70546;BME280;58098;51.680;5.134;2023-05-02T00:58:33;102094.97;;;10.08;100.00
70546;BME280;58098;51.680;5.134;2023-05-02T01:01:10;102095.66;;;10.12;100.00
70546;BME280;58098;51.680;5.134;2023-05-02T01:06:47;102095.97;;;10.06;100.00
70546;BME280;58098;51.680;5.134;2023-05-02T01:12:03;102094.38;;;10.03;100.00
70546;BME280;58098;51.680;5.134;2023-05-02T01:14:34;102093.03;;;9.96;100.00
70546;BME280;58098;51.680;5.134;2023-05-02T01:17:06;102096.34;;;10.00;100.00
70546;BME280;58098;51.680;5.134;2023-05-02T01:19:40;102087.56;;;10.01;100.00
70546;BME280;58098;51.680;5.134;2023-05-02T01:22:08;102077.97;;;10.01;100.00
70546;BME280;58098;51.680;5.134;2023-05-02T01:28:13;102090.59;;;10.09;100.00
70546;BME280;58098;51.680;5.134;2023-05-02T01:30:45;102089.56;;;10.11;100.00
70546;BME280;58098;51.680;5.134;2023-05-02T01:33:13;102095.13;;;10.05;100.00
70546;BME280;58098;51.680;5.134;2023-05-02T01:35:41;102095.22;;;10.04;100.00
70546;BME280;58098;51.680;5.134;2023-05-02T01:38:08;102086.56;;;10.03;100.00
70546;BME280;58098;51.680;5.134;2023-05-02T01:40:38;102091.97;;;10.00;100.00
70546;BME280;58098;51.680;5.134;2023-05-02T01:43:06;102103.72;;;10.07;100.00
70546;BME280;58098;51.680;5.134;2023-05-02T01:45:32;102101.19;;;10.06;100.00
70546;BME280;58098;51.680;5.134;2023-05-02T01:48:00;102100.44;;;10.04;100.00
70546;BME280;58098;51.680;5.134;2023-05-02T01:50:26;102112.38;;;10.08;100.00
70546;BME280;58098;51.680;5.134;2023-05-02T01:52:52;102123.47;;;10.11;100.00
70546;BME280;58098;51.680;5.134;2023-05-02T01:55:18;102114.16;;;10.07;100.00
70546;BME280;58098;51.680;5.134;2023-05-02T01:57:46;102110.44;;;9.95;100.00
70546;BME280;58098;51.680;5.134;2023-05-02T02:00:13;102125.75;;;10.02;100.00
70546;BME280;58098;51.680;5.134;2023-05-02T02:02:41;102125.25;;;10.11;100.00
70546;BME280;58098;51.680;5.134;2023-05-02T02:05:08;102133.69;;;10.16;100.00
70546;BME280;58098;51.680;5.134;2023-05-02T02:07:35;102128.97;;;10.07;100.00
70546;BME280;58098;51.680;5.134;2023-05-02T02:10:00;102142.25;;;10.18;100.00
70546;BME280;58098;51.680;5.134;2023-05-02T02:12:27;102141.94;;;10.24;100.00
70546;BME280;58098;51.680;5.134;2023-05-02T02:14:58;102149.81;;;10.22;100.00
70546;BME280;58098;51.680;5.134;2023-05-02T02:17:36;102132.66;;;10.18;100.00
70546;BME280;58098;51.680;5.134;2023-05-02T02:20:04;102129.97;;;10.20;100.00
70546;BME280;58098;51.680;5.134;2023-05-02T02:22:33;102150.66;;;10.23;100.00
70546;BME280;58098;51.680;5.134;2023-05-02T02:25:03;102155.56;;;10.29;100.00
70546;BME280;58098;51.680;5.134;2023-05-02T02:27:30;102160.84;;;10.27;100.00
70546;BME280;58098;51.680;5.134;2023-05-02T02:29:55;102161.63;;;10.29;100.00
70546;BME280;58098;51.680;5.134;2023-05-02T02:32:21;102153.69;;;10.31;100.00
70546;BME280;58098;51.680;5.134;2023-05-02T02:34:46;102150.66;;;10.23;100.00
70546;BME280;58098;51.680;5.134;2023-05-02T02:37:19;102145.44;;;10.23;100.00
70546;BME280;58098;51.680;5.134;2023-05-02T02:39:59;102152.19;;;10.27;100.00
70546;BME280;58098;51.680;5.134;2023-05-02T02:48:07;102179.19;;;10.26;100.00
70546;BME280;58098;51.680;5.134;2023-05-02T02:50:39;102149.97;;;10.04;100.00
70546;BME280;58098;51.680;5.134;2023-05-02T02:53:16;102163.97;;;10.03;100.00
70546;BME280;58098;51.680;5.134;2023-05-02T02:55:59;102160.56;;;10.01;100.00
70546;BME280;58098;51.680;5.134;2023-05-02T03:01:10;102168.25;;;10.04;100.00
70546;BME280;58098;51.680;5.134;2023-05-02T03:03:39;102179.25;;;10.09;100.00
70546;BME280;58098;51.680;5.134;2023-05-02T03:06:06;102188.84;;;10.08;100.00
70546;BME280;58098;51.680;5.134;2023-05-02T03:08:42;102184.91;;;10.01;100.00
70546;BME280;58098;51.680;5.134;2023-05-02T03:11:08;102172.13;;;9.96;100.00
70546;BME280;58098;51.680;5.134;2023-05-02T03:13:34;102180.63;;;10.00;100.00
70546;BME280;58098;51.680;5.134;2023-05-02T03:18:38;102195.91;;;10.06;100.00
70546;BME280;58098;51.680;5.134;2023-05-02T03:21:04;102193.72;;;9.98;100.00
70546;BME280;58098;51.680;5.134;2023-05-02T03:23:30;102193.97;;;9.94;100.00
70546;BME280;58098;51.680;5.134;2023-05-02T03:25:55;102214.25;;;10.05;100.00
70546;BME280;58098;51.680;5.134;2023-05-02T03:28:20;102199.28;;;9.92;100.00
70546;BME280;58098;51.680;5.134;2023-05-02T03:30:46;102212.38;;;9.91;100.00
70546;BME280;58098;51.680;5.134;2023-05-02T03:33:11;102215.69;;;9.94;100.00
70546;BME280;58098;51.680;5.134;2023-05-02T03:35:36;102226.72;;;10.00;100.00
70546;BME280;58098;51.680;5.134;2023-05-02T03:38:02;102225.53;;;9.89;100.00
70546;BME280;58098;51.680;5.134;2023-05-02T03:40:27;102226.13;;;9.94;100.00
70546;BME280;58098;51.680;5.134;2023-05-02T03:42:52;102238.81;;;9.85;100.00
70546;BME280;58098;51.680;5.134;2023-05-02T03:45:18;102249.38;;;9.82;100.00
70546;BME280;58098;51.680;5.134;2023-05-02T03:47:43;102244.28;;;9.80;100.00
70546;BME280;58098;51.680;5.134;2023-05-02T03:50:08;102245.97;;;9.64;100.00
70546;BME280;58098;51.680;5.134;2023-05-02T03:52:34;102252.81;;;9.67;100.00
70546;BME280;58098;51.680;5.134;2023-05-02T03:55:00;102263.31;;;9.65;100.00
70546;BME280;58098;51.680;5.134;2023-05-02T03:57:28;102257.13;;;9.51;100.00
70546;BME280;58098;51.680;5.134;2023-05-02T03:59:54;102274.97;;;9.58;100.00
70546;BME280;58098;51.680;5.134;2023-05-02T04:02:19;102281.25;;;9.54;100.00
70546;BME280;58098;51.680;5.134;2023-05-02T04:04:45;102287.47;;;9.52;100.00
70546;BME280;58098;51.680;5.134;2023-05-02T04:07:10;102267.09;;;9.43;100.00
70546;BME280;58098;51.680;5.134;2023-05-02T04:09:42;102273.47;;;9.37;100.00
70546;BME280;58098;51.680;5.134;2023-05-02T04:12:07;102271.78;;;9.36;100.00
70546;BME280;58098;51.680;5.134;2023-05-02T04:14:32;102288.28;;;9.37;100.00
70546;BME280;58098;51.680;5.134;2023-05-02T04:16:57;102275.63;;;9.29;100.00
70546;BME280;58098;51.680;5.134;2023-05-02T04:19:23;102272.25;;;9.27;100.00
70546;BME280;58098;51.680;5.134;2023-05-02T04:21:48;102299.69;;;9.34;100.00
70546;BME280;58098;51.680;5.134;2023-05-02T04:24:13;102293.09;;;9.27;100.00
70546;BME280;58098;51.680;5.134;2023-05-02T04:26:39;102305.81;;;9.33;100.00
70546;BME280;58098;51.680;5.134;2023-05-02T04:29:04;102281.13;;;9.23;100.00
70546;BME280;58098;51.680;5.134;2023-05-02T04:31:30;102305.72;;;9.35;100.00
70546;BME280;58098;51.680;5.134;2023-05-02T04:33:56;102294.84;;;9.26;100.00
70546;BME280;58098;51.680;5.134;2023-05-02T04:36:21;102309.41;;;9.30;100.00
70546;BME280;58098;51.680;5.134;2023-05-02T04:38:47;102318.72;;;9.35;100.00
70546;BME280;58098;51.680;5.134;2023-05-02T04:41:13;102316.22;;;9.33;100.00
70546;BME280;58098;51.680;5.134;2023-05-02T04:43:39;102313.16;;;9.25;100.00
70546;BME280;58098;51.680;5.134;2023-05-02T04:46:04;102319.97;;;9.27;100.00
70546;BME280;58098;51.680;5.134;2023-05-02T04:48:30;102321.56;;;9.30;100.00
70546;BME280;58098;51.680;5.134;2023-05-02T04:50:55;102337.81;;;9.35;100.00
70546;BME280;58098;51.680;5.134;2023-05-02T04:53:21;102356.13;;;9.34;100.00
70546;BME280;58098;51.680;5.134;2023-05-02T04:55:47;102336.16;;;9.34;100.00
70546;BME280;58098;51.680;5.134;2023-05-02T04:58:13;102343.50;;;9.26;100.00
70546;BME280;58098;51.680;5.134;2023-05-02T05:00:38;102352.31;;;9.41;100.00
70546;BME280;58098;51.680;5.134;2023-05-02T05:03:03;102346.41;;;9.37;100.00
70546;BME280;58098;51.680;5.134;2023-05-02T05:05:30;102361.13;;;9.38;100.00
70546;BME280;58098;51.680;5.134;2023-05-02T05:07:56;102341.50;;;9.31;100.00
70546;BME280;58098;51.680;5.134;2023-05-02T05:10:21;102366.84;;;9.27;100.00
70546;BME280;58098;51.680;5.134;2023-05-02T05:12:47;102362.63;;;9.25;100.00
70546;BME280;58098;51.680;5.134;2023-05-02T05:15:13;102373.13;;;9.23;100.00
70546;BME280;58098;51.680;5.134;2023-05-02T05:17:39;102371.66;;;9.18;100.00
70546;BME280;58098;51.680;5.134;2023-05-02T05:20:05;102372.13;;;9.09;100.00
70546;BME280;58098;51.680;5.134;2023-05-02T05:22:30;102372.13;;;9.09;100.00
70546;BME280;58098;51.680;5.134;2023-05-02T05:24:56;102382.03;;;9.19;100.00
70546;BME280;58098;51.680;5.134;2023-05-02T05:27:21;102389.44;;;9.10;100.00
70546;BME280;58098;51.680;5.134;2023-05-02T05:29:47;102362.78;;;9.05;100.00
70546;BME280;58098;51.680;5.134;2023-05-02T05:32:12;102396.03;;;9.17;100.00
70546;BME280;58098;51.680;5.134;2023-05-02T05:34:37;102385.44;;;9.20;100.00
70546;BME280;58098;51.680;5.134;2023-05-02T05:37:03;102393.22;;;9.21;100.00
70546;BME280;58098;51.680;5.134;2023-05-02T05:39:28;102399.09;;;9.25;100.00
70546;BME280;58098;51.680;5.134;2023-05-02T05:41:54;102399.09;;;9.25;100.00
70546;BME280;58098;51.680;5.134;2023-05-02T05:44:19;102395.28;;;9.32;100.00
70546;BME280;58098;51.680;5.134;2023-05-02T05:46:46;102409.22;;;9.31;100.00
70546;BME280;58098;51.680;5.134;2023-05-02T05:49:14;102412.91;;;9.27;100.00
70546;BME280;58098;51.680;5.134;2023-05-02T05:51:39;102416.28;;;9.29;100.00
70546;BME280;58098;51.680;5.134;2023-05-02T05:54:05;102430.44;;;9.23;100.00
70546;BME280;58098;51.680;5.134;2023-05-02T05:56:31;102438.78;;;9.30;100.00
70546;BME280;58098;51.680;5.134;2023-05-02T05:58:56;102437.13;;;9.29;100.00
70546;BME280;58098;51.680;5.134;2023-05-02T06:01:21;102433.56;;;9.30;100.00
70546;BME280;58098;51.680;5.134;2023-05-02T06:03:47;102450.19;;;9.46;100.00
70546;BME280;58098;51.680;5.134;2023-05-02T06:06:12;102437.91;;;9.48;100.00
70546;BME280;58098;51.680;5.134;2023-05-02T06:08:37;102447.81;;;9.59;100.00
70546;BME280;58098;51.680;5.134;2023-05-02T06:11:07;102445.75;;;9.65;100.00
70546;BME280;58098;51.680;5.134;2023-05-02T06:13:32;102445.44;;;9.71;100.00
70546;BME280;58098;51.680;5.134;2023-05-02T06:16:01;102463.69;;;9.88;100.00
70546;BME280;58098;51.680;5.134;2023-05-02T06:18:27;102455.47;;;9.96;100.00
70546;BME280;58098;51.680;5.134;2023-05-02T06:20:53;102460.03;;;10.10;100.00
70546;BME280;58098;51.680;5.134;2023-05-02T06:23:18;102461.56;;;10.14;100.00
70546;BME280;58098;51.680;5.134;2023-05-02T06:25:44;102463.69;;;10.23;100.00
70546;BME280;58098;51.680;5.134;2023-05-02T06:28:09;102467.69;;;10.13;100.00
70546;BME280;58098;51.680;5.134;2023-05-02T06:30:34;102466.56;;;10.18;100.00
70546;BME280;58098;51.680;5.134;2023-05-02T06:33:03;102465.69;;;10.18;100.00
70546;BME280;58098;51.680;5.134;2023-05-02T06:35:28;102491.88;;;10.33;100.00
70546;BME280;58098;51.680;5.134;2023-05-02T06:37:54;102480.47;;;10.34;100.00
70546;BME280;58098;51.680;5.134;2023-05-02T06:40:19;102491.72;;;10.36;100.00
70546;BME280;58098;51.680;5.134;2023-05-02T06:42:45;102495.75;;;10.42;100.00
70546;BME280;58098;51.680;5.134;2023-05-02T06:45:10;102499.97;;;10.44;100.00
70546;BME280;58098;51.680;5.134;2023-05-02T06:47:35;102495.50;;;10.46;100.00
70546;BME280;58098;51.680;5.134;2023-05-02T06:50:01;102513.53;;;10.68;100.00
70546;BME280;58098;51.680;5.134;2023-05-02T06:52:26;102515.19;;;10.69;100.00
70546;BME280;58098;51.680;5.134;2023-05-02T06:54:51;102503.00;;;10.70;100.00
70546;BME280;58098;51.680;5.134;2023-05-02T06:57:16;102516.75;;;10.73;100.00
70546;BME280;58098;51.680;5.134;2023-05-02T06:59:42;102510.16;;;10.49;100.00
70546;BME280;58098;51.680;5.134;2023-05-02T07:02:07;102512.78;;;10.49;100.00
70546;BME280;58098;51.680;5.134;2023-05-02T07:04:32;102511.66;;;10.37;100.00
70546;BME280;58098;51.680;5.134;2023-05-02T07:06:58;102520.84;;;10.44;100.00
70546;BME280;58098;51.680;5.134;2023-05-02T07:09:23;102521.69;;;10.45;100.00
70546;BME280;58098;51.680;5.134;2023-05-02T07:11:48;102537.75;;;10.37;100.00
70546;BME280;58098;51.680;5.134;2023-05-02T07:14:14;102519.81;;;10.14;100.00
70546;BME280;58098;51.680;5.134;2023-05-02T07:16:39;102537.06;;;10.17;100.00
70546;BME280;58098;51.680;5.134;2023-05-02T07:19:04;102550.16;;;10.15;100.00
70546;BME280;58098;51.680;5.134;2023-05-02T07:21:31;102546.91;;;10.10;100.00
70546;BME280;58098;51.680;5.134;2023-05-02T07:23:56;102554.09;;;10.24;100.00
70546;BME280;58098;51.680;5.134;2023-05-02T07:26:22;102558.56;;;10.22;100.00
70546;BME280;58098;51.680;5.134;2023-05-02T07:28:47;102566.38;;;10.39;100.00
70546;BME280;58098;51.680;5.134;2023-05-02T07:31:13;102564.91;;;10.50;100.00
70546;BME280;58098;51.680;5.134;2023-05-02T07:33:38;102553.22;;;10.57;100.00
70546;BME280;58098;51.680;5.134;2023-05-02T07:36:04;102564.41;;;10.77;100.00
70546;BME280;58098;51.680;5.134;2023-05-02T07:38:29;102570.31;;;10.80;100.00
70546;BME280;58098;51.680;5.134;2023-05-02T07:40:58;102562.88;;;10.73;100.00
70546;BME280;58098;51.680;5.134;2023-05-02T07:43:23;102573.41;;;10.71;100.00
70546;BME280;58098;51.680;5.134;2023-05-02T07:45:48;102563.03;;;10.70;100.00
70546;BME280;58098;51.680;5.134;2023-05-02T07:48:14;102575.19;;;10.71;100.00
70546;BME280;58098;51.680;5.134;2023-05-02T07:50:39;102594.97;;;10.75;100.00
70546;BME280;58098;51.680;5.134;2023-05-02T07:53:04;102580.19;;;10.58;100.00
70546;BME280;58098;51.680;5.134;2023-05-02T07:55:30;102579.09;;;10.62;100.00
70546;BME280;58098;51.680;5.134;2023-05-02T07:57:57;102598.59;;;10.72;100.00
70546;BME280;58098;51.680;5.134;2023-05-02T08:00:22;102592.91;;;10.64;100.00
70546;BME280;58098;51.680;5.134;2023-05-02T08:02:48;102588.28;;;10.69;100.00
70546;BME280;58098;51.680;5.134;2023-05-02T08:05:13;102606.88;;;10.80;100.00
70546;BME280;58098;51.680;5.134;2023-05-02T08:07:38;102584.38;;;10.78;100.00
70546;BME280;58098;51.680;5.134;2023-05-02T08:10:05;102589.38;;;10.98;100.00
70546;BME280;58098;51.680;5.134;2023-05-02T08:12:30;102601.06;;;11.08;100.00
70546;BME280;58098;51.680;5.134;2023-05-02T08:14:56;102606.47;;;11.20;100.00
70546;BME280;58098;51.680;5.134;2023-05-02T08:17:21;102576.88;;;11.04;100.00
70546;BME280;58098;51.680;5.134;2023-05-02T08:19:47;102600.41;;;11.20;100.00
70546;BME280;58098;51.680;5.134;2023-05-02T08:22:12;102612.63;;;11.19;100.00
70546;BME280;58098;51.680;5.134;2023-05-02T08:24:37;102607.34;;;11.37;100.00
70546;BME280;58098;51.680;5.134;2023-05-02T08:27:02;102605.91;;;11.31;100.00
70546;BME280;58098;51.680;5.134;2023-05-02T08:29:29;102622.78;;;11.41;100.00
70546;BME280;58098;51.680;5.134;2023-05-02T08:31:55;102617.97;;;11.34;100.00
70546;BME280;58098;51.680;5.134;2023-05-02T08:34:20;102630.84;;;11.37;100.00
70546;BME280;58098;51.680;5.134;2023-05-02T08:36:46;102631.94;;;11.33;100.00
70546;BME280;58098;51.680;5.134;2023-05-02T08:39:11;102618.63;;;11.37;100.00
70546;BME280;58098;51.680;5.134;2023-05-02T08:41:37;102640.41;;;11.38;100.00
70546;BME280;58098;51.680;5.134;2023-05-02T08:44:05;102637.16;;;11.65;100.00
70546;BME280;58098;51.680;5.134;2023-05-02T08:46:31;102643.13;;;11.67;100.00
70546;BME280;58098;51.680;5.134;2023-05-02T08:49:00;102640.22;;;11.89;100.00
70546;BME280;58098;51.680;5.134;2023-05-02T08:51:26;102651.38;;;12.22;100.00
70546;BME280;58098;51.680;5.134;2023-05-02T08:53:53;102647.38;;;12.17;100.00
70546;BME280;58098;51.680;5.134;2023-05-02T08:56:19;102649.56;;;11.93;100.00
70546;BME280;58098;51.680;5.134;2023-05-02T08:58:45;102650.25;;;11.97;100.00
70546;BME280;58098;51.680;5.134;2023-05-02T09:01:22;102657.00;;;12.01;100.00
70546;BME280;58098;51.680;5.134;2023-05-02T09:03:48;102667.63;;;11.82;100.00
70546;BME280;58098;51.680;5.134;2023-05-02T09:06:19;102664.16;;;11.81;100.00
70546;BME280;58098;51.680;5.134;2023-05-02T09:08:47;102650.75;;;11.72;100.00
70546;BME280;58098;51.680;5.134;2023-05-02T09:11:14;102662.06;;;11.88;100.00
70546;BME280;58098;51.680;5.134;2023-05-02T09:13:42;102655.97;;;12.03;100.00
70546;BME280;58098;51.680;5.134;2023-05-02T09:16:09;102666.13;;;12.09;100.00
70546;BME280;58098;51.680;5.134;2023-05-02T09:18:43;102675.03;;;12.05;100.00
70546;BME280;58098;51.680;5.134;2023-05-02T09:21:17;102667.28;;;11.88;100.00
70546;BME280;58098;51.680;5.134;2023-05-02T09:24:28;102684.81;;;12.17;100.00
70546;BME280;58098;51.680;5.134;2023-05-02T09:26:30;102677.50;;;12.24;100.00
70546;BME280;58098;51.680;5.134;2023-05-02T09:28:58;102690.59;;;12.24;100.00
70546;BME280;58098;51.680;5.134;2023-05-02T09:31:32;102665.75;;;12.15;100.00
70546;BME280;58098;51.680;5.134;2023-05-02T09:34:08;102697.13;;;12.46;100.00
70546;BME280;58098;51.680;5.134;2023-05-02T09:36:42;102693.53;;;12.33;100.00
70546;BME280;58098;51.680;5.134;2023-05-02T09:39:16;102692.41;;;12.22;100.00
70546;BME280;58098;51.680;5.134;2023-05-02T09:41:43;102698.09;;;12.14;100.00
70546;BME280;58098;51.680;5.134;2023-05-02T09:44:14;102682.97;;;12.19;100.00
70546;BME280;58098;51.680;5.134;2023-05-02T09:46:43;102688.22;;;12.04;100.00
70546;BME280;58098;51.680;5.134;2023-05-02T09:49:08;102686.16;;;12.40;100.00
70546;BME280;58098;51.680;5.134;2023-05-02T09:51:34;102681.84;;;12.98;100.00
70546;BME280;58098;51.680;5.134;2023-05-02T09:54:00;102683.56;;;13.56;100.00
70546;BME280;58098;51.680;5.134;2023-05-02T09:56:25;102691.53;;;13.68;100.00
70546;BME280;58098;51.680;5.134;2023-05-02T09:58:51;102699.19;;;13.85;100.00
70546;BME280;58098;51.680;5.134;2023-05-02T10:01:17;102693.47;;;13.93;100.00
70546;BME280;58098;51.680;5.134;2023-05-02T10:03:47;102707.91;;;13.86;100.00
70546;BME280;58098;51.680;5.134;2023-05-02T10:06:14;102720.19;;;13.85;100.00
70546;BME280;58098;51.680;5.134;2023-05-02T10:08:40;102720.84;;;13.89;100.00
70546;BME280;58098;51.680;5.134;2023-05-02T10:11:07;102706.13;;;13.86;100.00
70546;BME280;58098;51.680;5.134;2023-05-02T10:13:33;102710.28;;;13.62;100.00
70546;BME280;58098;51.680;5.134;2023-05-02T10:16:02;102713.16;;;13.44;100.00
70546;BME280;58098;51.680;5.134;2023-05-02T10:18:41;102721.72;;;13.33;100.00
70546;BME280;58098;51.680;5.134;2023-05-02T10:21:09;102707.91;;;13.15;100.00
70546;BME280;58098;51.680;5.134;2023-05-02T10:23:37;102726.00;;;13.20;100.00
70546;BME280;58098;51.680;5.134;2023-05-02T10:26:05;102717.19;;;13.21;100.00
70546;BME280;58098;51.680;5.134;2023-05-02T10:28:31;102709.78;;;13.13;100.00
70546;BME280;58098;51.680;5.134;2023-05-02T10:30:59;102716.81;;;13.27;100.00
70546;BME280;58098;51.680;5.134;2023-05-02T10:33:27;102720.00;;;13.32;100.00
70546;BME280;58098;51.680;5.134;2023-05-02T10:35:52;102728.84;;;13.31;100.00
70546;BME280;58098;51.680;5.134;2023-05-02T10:38:21;102730.31;;;13.49;100.00
70546;BME280;58098;51.680;5.134;2023-05-02T10:41:06;102729.69;;;14.15;100.00
70546;BME280;58098;51.680;5.134;2023-05-02T10:43:34;102714.16;;;14.38;100.00
70546;BME280;58098;51.680;5.134;2023-05-02T10:46:00;102706.97;;;14.28;100.00
70546;BME280;58098;51.680;5.134;2023-05-02T10:48:28;102727.47;;;14.09;100.00
70546;BME280;58098;51.680;5.134;2023-05-02T10:50:57;102725.19;;;14.17;100.00
70546;BME280;58098;51.680;5.134;2023-05-02T10:53:32;102721.16;;;14.52;100.00
70546;BME280;58098;51.680;5.134;2023-05-02T10:58:37;102716.56;;;14.15;100.00
70546;BME280;58098;51.680;5.134;2023-05-02T11:03:57;102738.28;;;14.84;100.00
70546;BME280;58098;51.680;5.134;2023-05-02T11:06:25;102738.81;;;14.89;100.00
70546;BME280;58098;51.680;5.134;2023-05-02T11:08:51;102724.97;;;15.12;100.00
70546;BME280;58098;51.680;5.134;2023-05-02T11:11:39;102741.69;;;15.37;100.00
70546;BME280;58098;51.680;5.134;2023-05-02T11:14:05;102746.34;;;15.58;100.00
70546;BME280;58098;51.680;5.134;2023-05-02T11:24:43;102737.00;;;16.63;100.00
70546;BME280;58098;51.680;5.134;2023-05-02T11:30:08;102736.25;;;16.85;98.04
70546;BME280;58098;51.680;5.134;2023-05-02T11:35:23;102720.03;;;17.13;100.00
70546;BME280;58098;51.680;5.134;2023-05-02T11:37:58;102726.19;;;16.90;100.00
70546;BME280;58098;51.680;5.134;2023-05-02T11:40:24;102729.94;;;16.40;100.00
70546;BME280;58098;51.680;5.134;2023-05-02T11:42:51;102715.34;;;16.23;100.00
70546;BME280;58098;51.680;5.134;2023-05-02T11:45:16;102724.56;;;16.05;100.00
70546;BME280;58098;51.680;5.134;2023-05-02T11:47:43;102727.41;;;16.38;100.00
70546;BME280;58098;51.680;5.134;2023-05-02T11:50:10;102726.63;;;16.25;100.00
70546;BME280;58098;51.680;5.134;2023-05-02T11:52:41;102737.72;;;16.41;100.00
70546;BME280;58098;51.680;5.134;2023-05-02T11:55:10;102725.53;;;17.10;100.00
70546;BME280;58098;51.680;5.134;2023-05-02T11:57:36;102719.75;;;17.62;94.81
70546;BME280;58098;51.680;5.134;2023-05-02T12:00:02;102736.78;;;18.34;100.00
70546;BME280;58098;51.680;5.134;2023-05-02T12:02:41;102721.13;;;18.53;100.00
70546;BME280;58098;51.680;5.134;2023-05-02T12:05:08;102743.06;;;18.11;98.58
70546;BME280;58098;51.680;5.134;2023-05-02T12:07:38;102754.38;;;17.46;100.00
70546;BME280;58098;51.680;5.134;2023-05-02T12:10:05;102742.94;;;17.24;90.62
70546;BME280;58098;51.680;5.134;2023-05-02T12:12:31;102751.47;;;17.38;96.02
70546;BME280;58098;51.680;5.134;2023-05-02T12:14:57;102738.59;;;17.11;79.54
70546;BME280;58098;51.680;5.134;2023-05-02T12:17:23;102744.00;;;17.21;82.10
70546;BME280;58098;51.680;5.134;2023-05-02T12:19:49;102758.72;;;17.01;95.93
70546;BME280;58098;51.680;5.134;2023-05-02T12:22:15;102758.72;;;16.67;93.17
70546;BME280;58098;51.680;5.134;2023-05-02T12:24:41;102764.72;;;16.69;81.53
70546;BME280;58098;51.680;5.134;2023-05-02T12:27:11;102755.72;;;17.06;74.47
70546;BME280;58098;51.680;5.134;2023-05-02T12:29:41;102755.63;;;17.53;90.32
70546;BME280;58098;51.680;5.134;2023-05-02T12:32:07;102754.88;;;17.51;99.87
70546;BME280;58098;51.680;5.134;2023-05-02T12:34:33;102771.94;;;17.80;85.37
70546;BME280;58098;51.680;5.134;2023-05-02T12:36:59;102772.78;;;17.59;76.36
70546;BME280;58098;51.680;5.134;2023-05-02T12:39:37;102774.44;;;18.04;92.52
70546;BME280;58098;51.680;5.134;2023-05-02T12:42:14;102778.63;;;17.51;70.79
70546;BME280;58098;51.680;5.134;2023-05-02T12:44:46;102778.13;;;18.24;73.19
70546;BME280;58098;51.680;5.134;2023-05-02T12:47:14;102765.88;;;18.23;64.73
70546;BME280;58098;51.680;5.134;2023-05-02T12:49:49;102786.91;;;18.78;64.97
70546;BME280;58098;51.680;5.134;2023-05-02T12:52:16;102780.28;;;19.04;83.62
70546;BME280;58098;51.680;5.134;2023-05-02T12:54:42;102759.44;;;19.32;64.40
70546;BME280;58098;51.680;5.134;2023-05-02T12:57:07;102771.50;;;20.15;65.09
70546;BME280;58098;51.680;5.134;2023-05-02T12:59:32;102773.69;;;20.31;54.15
70546;BME280;58098;51.680;5.134;2023-05-02T13:01:58;102783.16;;;19.94;60.45
70546;BME280;58098;51.680;5.134;2023-05-02T13:04:37;102767.06;;;20.16;62.77
70546;BME280;58098;51.680;5.134;2023-05-02T13:07:04;102772.47;;;20.05;56.03
70546;BME280;58098;51.680;5.134;2023-05-02T13:09:29;102775.94;;;20.74;56.45
70546;BME280;58098;51.680;5.134;2023-05-02T13:11:54;102783.00;;;19.55;50.83
70546;BME280;58098;51.680;5.134;2023-05-02T13:14:21;102765.47;;;20.04;56.91
70546;BME280;58098;51.680;5.134;2023-05-02T13:16:48;102766.09;;;20.17;51.75
70546;BME280;58098;51.680;5.134;2023-05-02T13:19:13;102775.38;;;19.62;56.40
70546;BME280;58098;51.680;5.134;2023-05-02T13:21:39;102780.81;;;19.40;52.28